createdAt,value
2023-02-17T00:00:27.124Z,7.51
2023-02-17T00:01:27.134Z,7.50
2023-02-17T00:02:27.178Z,7.47
2023-02-17T00:03:27.185Z,7.40
2023-02-17T00:04:27.173Z,7.44
2023-02-17T00:05:27.194Z,7.50
2023-02-17T00:06:27.198Z,7.46
2023-02-17T00:07:27.207Z,7.39
2023-02-17T00:08:27.220Z,7.32
2023-02-17T00:09:27.231Z,7.33
2023-02-17T00:10:27.244Z,7.37
2023-02-17T00:11:27.256Z,7.37
2023-02-17T00:12:27.268Z,7.32
2023-02-17T00:13:27.292Z,7.26
2023-02-17T00:14:27.310Z,7.29
2023-02-17T00:15:27.307Z,7.31
2023-02-17T00:16:27.331Z,7.26
2023-02-17T00:17:27.333Z,7.32
2023-02-17T00:18:27.348Z,7.25
2023-02-17T00:19:27.354Z,7.28
2023-02-17T00:20:27.366Z,7.19
2023-02-17T00:21:27.379Z,7.29
2023-02-17T00:22:27.392Z,7.18
2023-02-17T00:23:27.408Z,7.22
2023-02-17T00:24:27.414Z,7.19
2023-02-17T00:25:27.426Z,7.21
2023-02-17T00:26:27.441Z,7.23
2023-02-17T00:27:27.458Z,7.11
2023-02-17T00:28:27.468Z,7.04
2023-02-17T00:29:27.490Z,7.15
2023-02-17T00:30:27.542Z,7.10
2023-02-17T00:31:27.657Z,7.10
2023-02-17T00:32:27.512Z,7.10
2023-02-17T00:33:27.526Z,7.13
2023-02-17T00:34:27.547Z,7.08
2023-02-17T00:35:27.553Z,7.10
2023-02-17T00:36:27.597Z,7.08
2023-02-17T00:37:27.575Z,7.10
2023-02-17T00:38:27.585Z,7.08
2023-02-17T00:39:27.596Z,7.04
2023-02-17T00:40:27.609Z,7.07
2023-02-17T00:41:27.631Z,7.10
2023-02-17T00:42:27.635Z,7.04
2023-02-17T00:43:27.651Z,7.10
2023-02-17T00:44:27.658Z,7.04
2023-02-17T00:45:27.667Z,7.10
2023-02-17T00:46:27.717Z,7.04
2023-02-17T00:47:27.699Z,7.05
2023-02-17T00:48:27.760Z,6.89
2023-02-17T00:49:27.719Z,7.01
2023-02-17T00:50:27.739Z,6.97
2023-02-17T00:51:27.748Z,7.03
2023-02-17T00:52:27.759Z,7.00
2023-02-17T00:53:27.764Z,7.01
2023-02-17T00:54:27.777Z,7.01
2023-02-17T00:55:27.792Z,6.96
2023-02-17T00:56:27.800Z,7.00
2023-02-17T00:57:27.813Z,6.96
2023-02-17T00:58:27.822Z,6.92
2023-02-17T00:59:27.837Z,7.01
2023-02-17T01:00:27.847Z,6.89
2023-02-17T01:01:27.895Z,6.96
2023-02-17T01:02:27.875Z,6.96
2023-02-17T01:03:27.889Z,6.96
2023-02-17T01:04:27.927Z,7.00
2023-02-17T01:05:27.908Z,6.92
2023-02-17T01:06:27.937Z,7.00
2023-02-17T01:07:27.946Z,6.92
2023-02-17T01:08:27.953Z,6.90
2023-02-17T01:09:27.956Z,6.85
2023-02-17T01:10:27.967Z,6.95
2023-02-17T01:11:27.978Z,6.86
2023-02-17T01:12:27.990Z,6.80
2023-02-17T01:13:28.005Z,6.85
2023-02-17T01:14:28.014Z,6.85
2023-02-17T01:15:28.025Z,6.89
2023-02-17T01:16:28.140Z,6.83
2023-02-17T01:17:28.057Z,6.86
2023-02-17T01:18:28.065Z,6.86
2023-02-17T01:19:28.076Z,6.82
2023-02-17T01:20:28.086Z,6.87
2023-02-17T01:21:28.099Z,6.95
2023-02-17T01:22:28.109Z,6.92
2023-02-17T01:23:28.138Z,6.89
2023-02-17T01:24:28.140Z,6.75
2023-02-17T01:25:28.149Z,6.85
2023-02-17T01:26:28.163Z,6.89
2023-02-17T01:27:28.190Z,6.87
2023-02-17T01:28:28.185Z,6.90
2023-02-17T01:29:28.192Z,6.87
2023-02-17T01:30:28.275Z,6.82
2023-02-17T01:31:28.300Z,6.80
2023-02-17T01:32:28.243Z,6.82
2023-02-17T01:33:28.263Z,6.80
2023-02-17T01:34:28.284Z,6.85
2023-02-17T01:35:28.267Z,6.83
2023-02-17T01:36:28.275Z,6.78
2023-02-17T01:37:28.285Z,6.80
2023-02-17T01:38:28.299Z,6.78
2023-02-17T01:39:28.320Z,6.82
2023-02-17T01:40:28.320Z,6.80
2023-02-17T01:41:28.329Z,6.83
2023-02-17T01:42:28.344Z,6.87
2023-02-17T01:43:28.355Z,6.85
2023-02-17T01:44:28.370Z,6.89
2023-02-17T01:45:28.385Z,6.90
2023-02-17T01:46:28.419Z,6.87
2023-02-17T01:47:28.402Z,6.82
2023-02-17T01:48:28.412Z,6.85
2023-02-17T01:49:28.424Z,6.86
2023-02-17T01:50:28.436Z,6.85
2023-02-17T01:51:28.448Z,6.87
2023-02-17T01:52:28.462Z,6.92
2023-02-17T01:53:28.470Z,6.89
2023-02-17T01:54:28.485Z,6.89
2023-02-17T01:55:28.495Z,6.83
2023-02-17T01:56:28.506Z,6.87
2023-02-17T01:57:28.530Z,6.86
2023-02-17T01:58:28.538Z,6.85
2023-02-17T01:59:28.543Z,6.83
2023-02-17T02:00:28.556Z,6.83
2023-02-17T02:01:28.564Z,6.86
2023-02-17T02:02:28.681Z,6.95
2023-02-17T02:03:28.590Z,6.92
2023-02-17T02:04:28.603Z,6.83
2023-02-17T02:05:28.612Z,6.87
2023-02-17T02:06:28.623Z,6.92
2023-02-17T02:07:28.646Z,6.89
2023-02-17T02:08:28.648Z,6.86
2023-02-17T02:09:28.659Z,6.87
2023-02-17T02:10:28.671Z,6.85
2023-02-17T02:11:28.686Z,6.83
2023-02-17T02:12:28.701Z,6.83
2023-02-17T02:13:28.710Z,6.86
2023-02-17T02:14:28.722Z,6.85
2023-02-17T02:15:28.736Z,6.83
2023-02-17T02:16:28.784Z,6.82
2023-02-17T02:17:28.763Z,6.92
2023-02-17T02:18:28.773Z,6.86
2023-02-17T02:19:28.784Z,6.87
2023-02-17T02:20:28.798Z,6.86
2023-02-17T02:21:28.808Z,6.89
2023-02-17T02:22:28.818Z,6.86
2023-02-17T02:23:28.834Z,6.83
2023-02-17T02:24:28.845Z,6.87
2023-02-17T02:25:28.852Z,6.83
2023-02-17T02:26:28.867Z,6.82
2023-02-17T02:27:28.877Z,6.85
2023-02-17T02:28:28.891Z,6.95
2023-02-17T02:29:28.904Z,6.86
2023-02-17T02:30:28.947Z,6.89
2023-02-17T02:31:28.984Z,6.86
2023-02-17T02:32:28.948Z,6.86
2023-02-17T02:33:28.949Z,6.87
2023-02-17T02:34:28.960Z,6.89
2023-02-17T02:35:28.973Z,6.89
2023-02-17T02:36:28.986Z,6.89
2023-02-17T02:37:28.997Z,6.89
2023-02-17T02:38:29.008Z,6.85
2023-02-17T02:39:29.019Z,6.95
2023-02-17T02:40:29.032Z,6.83
2023-02-17T02:41:29.043Z,6.82
2023-02-17T02:42:29.054Z,6.89
2023-02-17T02:43:29.068Z,6.78
2023-02-17T02:44:29.084Z,6.89
2023-02-17T02:45:29.107Z,6.89
2023-02-17T02:46:29.104Z,6.87
2023-02-17T02:47:29.120Z,6.85
2023-02-17T02:48:29.127Z,6.87
2023-02-17T02:49:29.138Z,6.87
2023-02-17T02:50:29.149Z,6.89
2023-02-17T02:51:29.176Z,6.85
2023-02-17T02:52:29.172Z,6.83
2023-02-17T02:53:29.185Z,6.83
2023-02-17T02:54:29.196Z,6.85
2023-02-17T02:55:29.224Z,6.85
2023-02-17T02:56:29.241Z,6.89
2023-02-17T02:57:29.232Z,6.83
2023-02-17T02:58:29.254Z,6.87
2023-02-17T02:59:29.258Z,6.86
2023-02-17T03:00:29.272Z,6.92
2023-02-17T03:01:29.278Z,6.86
2023-02-17T03:02:29.295Z,6.90
2023-02-17T03:03:29.300Z,6.87
2023-02-17T03:04:29.314Z,6.85
2023-02-17T03:05:29.324Z,6.87
2023-02-17T03:06:29.335Z,6.83
2023-02-17T03:07:29.347Z,6.89
2023-02-17T03:08:29.360Z,6.87
2023-02-17T03:09:29.372Z,6.89
2023-02-17T03:10:29.386Z,6.86
2023-02-17T03:11:29.400Z,6.86
2023-02-17T03:12:29.408Z,6.86
2023-02-17T03:13:29.423Z,6.92
2023-02-17T03:14:29.433Z,6.85
2023-02-17T03:15:29.441Z,6.86
2023-02-17T03:16:29.477Z,6.92
2023-02-17T03:17:29.466Z,6.86
2023-02-17T03:18:29.477Z,6.89
2023-02-17T03:19:29.490Z,6.85
2023-02-17T03:20:29.503Z,6.86
2023-02-17T03:21:29.511Z,6.85
2023-02-17T03:22:29.525Z,6.89
2023-02-17T03:23:29.538Z,6.86
2023-02-17T03:24:29.555Z,6.85
2023-02-17T03:25:29.560Z,6.85
2023-02-17T03:26:29.572Z,6.90
2023-02-17T03:27:29.589Z,6.85
2023-02-17T03:28:29.597Z,6.83
2023-02-17T03:29:29.609Z,6.87
2023-02-17T03:30:29.646Z,6.90
2023-02-17T03:31:30.866Z,6.89
2023-02-17T03:32:29.642Z,6.86
2023-02-17T03:33:29.651Z,6.87
2023-02-17T03:34:29.665Z,6.86
2023-02-17T03:35:29.677Z,6.89
2023-02-17T03:36:29.688Z,6.83
2023-02-17T03:37:29.701Z,6.90
2023-02-17T03:38:29.728Z,6.90
2023-02-17T03:39:29.724Z,6.93
2023-02-17T03:40:29.738Z,6.95
2023-02-17T03:41:29.746Z,6.96
2023-02-17T03:42:29.764Z,6.92
2023-02-17T03:43:29.770Z,6.95
2023-02-17T03:44:29.789Z,6.93
2023-02-17T03:45:29.792Z,6.95
2023-02-17T03:46:29.804Z,6.95
2023-02-17T03:47:29.840Z,7.00
2023-02-17T03:48:29.831Z,7.01
2023-02-17T03:49:29.853Z,6.96
2023-02-17T03:50:29.851Z,6.95
2023-02-17T03:51:29.872Z,7.01
2023-02-17T03:52:29.875Z,7.00
2023-02-17T03:53:29.885Z,7.04
2023-02-17T03:54:29.899Z,7.04
2023-02-17T03:55:29.923Z,7.00
2023-02-17T03:56:29.927Z,7.00
2023-02-17T03:57:29.931Z,7.00
2023-02-17T03:58:29.943Z,7.01
2023-02-17T03:59:29.957Z,6.96
2023-02-17T04:00:29.969Z,7.07
2023-02-17T04:01:30.088Z,7.01
2023-02-17T04:02:29.989Z,7.04
2023-02-17T04:03:30.002Z,7.03
2023-02-17T04:04:30.015Z,7.07
2023-02-17T04:05:30.024Z,7.07
2023-02-17T04:06:30.042Z,7.08
2023-02-17T04:07:30.054Z,7.08
2023-02-17T04:08:30.078Z,7.04
2023-02-17T04:09:30.088Z,7.04
2023-02-17T04:10:30.089Z,6.92
2023-02-17T04:11:30.100Z,7.00
2023-02-17T04:12:30.105Z,6.95
2023-02-17T04:13:30.127Z,6.93
2023-02-17T04:14:30.155Z,7.01
2023-02-17T04:15:30.181Z,6.90
2023-02-17T04:16:30.151Z,6.89
2023-02-17T04:17:30.169Z,6.93
2023-02-17T04:18:30.173Z,7.01
2023-02-17T04:19:30.185Z,6.93
2023-02-17T04:20:30.197Z,7.03
2023-02-17T04:21:30.209Z,6.96
2023-02-17T04:22:30.219Z,6.97
2023-02-17T04:23:30.233Z,7.07
2023-02-17T04:24:30.255Z,6.96
2023-02-17T04:25:30.262Z,6.95
2023-02-17T04:26:30.265Z,6.92
2023-02-17T04:27:30.281Z,7.03
2023-02-17T04:28:30.296Z,7.01
2023-02-17T04:29:30.307Z,6.97
2023-02-17T04:30:30.358Z,7.00
2023-02-17T04:31:30.373Z,7.01
2023-02-17T04:32:30.335Z,7.04
2023-02-17T04:33:30.345Z,7.13
2023-02-17T04:34:30.358Z,7.10
2023-02-17T04:35:30.369Z,7.03
2023-02-17T04:36:30.382Z,7.07
2023-02-17T04:37:30.393Z,7.05
2023-02-17T04:38:30.405Z,7.01
2023-02-17T04:39:30.419Z,7.11
2023-02-17T04:40:30.428Z,7.08
2023-02-17T04:41:30.440Z,7.10
2023-02-17T04:42:30.460Z,7.11
2023-02-17T04:43:30.463Z,7.07
2023-02-17T04:44:30.474Z,7.10
2023-02-17T04:45:30.491Z,7.11
2023-02-17T04:46:30.523Z,7.10
2023-02-17T04:47:30.507Z,7.07
2023-02-17T04:48:30.521Z,7.13
2023-02-17T04:49:30.530Z,7.10
2023-02-17T04:50:30.546Z,7.15
2023-02-17T04:51:30.553Z,7.10
2023-02-17T04:52:30.565Z,7.07
2023-02-17T04:53:30.578Z,7.10
2023-02-17T04:54:30.600Z,7.10
2023-02-17T04:55:30.601Z,7.07
2023-02-17T04:56:30.620Z,7.19
2023-02-17T04:57:30.627Z,7.08
2023-02-17T04:58:30.637Z,7.10
2023-02-17T04:59:30.646Z,7.05
2023-02-17T05:00:30.663Z,7.07
2023-02-17T05:01:30.716Z,7.10
2023-02-17T05:02:30.683Z,7.07
2023-02-17T05:03:30.693Z,7.10
2023-02-17T05:04:30.734Z,7.21
2023-02-17T05:05:30.715Z,7.08
2023-02-17T05:06:30.730Z,7.21
2023-02-17T05:07:30.740Z,7.19
2023-02-17T05:08:30.754Z,7.08
2023-02-17T05:09:30.772Z,7.19
2023-02-17T05:10:30.774Z,7.26
2023-02-17T05:11:30.788Z,7.21
2023-02-17T05:12:30.800Z,7.22
2023-02-17T05:13:30.811Z,7.22
2023-02-17T05:14:30.821Z,7.15
2023-02-17T05:15:31.631Z,7.19
2023-02-17T05:16:30.845Z,7.25
2023-02-17T05:17:30.856Z,7.25
2023-02-17T05:18:30.874Z,7.18
2023-02-17T05:19:30.879Z,7.21
2023-02-17T05:20:30.893Z,7.23
2023-02-17T05:21:30.952Z,7.23
2023-02-17T05:22:30.917Z,7.22
2023-02-17T05:23:30.931Z,7.19
2023-02-17T05:24:30.950Z,7.25
2023-02-17T05:25:30.950Z,7.19
2023-02-17T05:26:30.960Z,7.18
2023-02-17T05:27:30.972Z,7.15
2023-02-17T05:28:30.983Z,7.21
2023-02-17T05:29:30.995Z,7.22
2023-02-17T05:30:31.085Z,7.25
2023-02-17T05:31:31.096Z,7.21
2023-02-17T05:32:31.032Z,7.21
2023-02-17T05:33:31.046Z,7.25
2023-02-17T05:34:31.059Z,7.21
2023-02-17T05:35:31.069Z,7.21
2023-02-17T05:36:31.085Z,7.19
2023-02-17T05:37:31.091Z,7.22
2023-02-17T05:38:31.106Z,7.19
2023-02-17T05:39:31.115Z,7.11
2023-02-17T05:40:31.126Z,7.25
2023-02-17T05:41:31.138Z,7.15
2023-02-17T05:42:31.155Z,7.10
2023-02-17T05:43:31.163Z,7.26
2023-02-17T05:44:31.174Z,7.25
2023-02-17T05:45:31.191Z,7.23
2023-02-17T05:46:31.223Z,7.19
2023-02-17T05:47:31.211Z,7.23
2023-02-17T05:48:31.222Z,7.15
2023-02-17T05:49:31.231Z,7.23
2023-02-17T05:50:31.243Z,7.26
2023-02-17T05:51:31.256Z,7.23
2023-02-17T05:52:31.291Z,7.21
2023-02-17T05:53:31.288Z,7.26
2023-02-17T05:54:31.293Z,7.29
2023-02-17T05:55:31.306Z,7.18
2023-02-17T05:56:31.315Z,7.19
2023-02-17T05:57:31.328Z,7.18
2023-02-17T05:58:31.340Z,7.15
2023-02-17T05:59:31.353Z,7.19
2023-02-17T06:00:31.367Z,7.15
2023-02-17T06:01:31.377Z,7.14
2023-02-17T06:02:31.388Z,7.14
2023-02-17T06:03:31.405Z,7.21
2023-02-17T06:04:31.490Z,7.19
2023-02-17T06:05:31.427Z,7.18
2023-02-17T06:06:31.446Z,7.28
2023-02-17T06:07:31.450Z,7.23
2023-02-17T06:08:31.465Z,7.23
2023-02-17T06:09:31.475Z,7.15
2023-02-17T06:10:31.481Z,7.23
2023-02-17T06:11:31.500Z,7.19
2023-02-17T06:12:31.508Z,7.19
2023-02-17T06:13:31.519Z,7.15
2023-02-17T06:14:31.532Z,7.22
2023-02-17T06:15:31.550Z,7.21
2023-02-17T06:16:31.593Z,7.15
2023-02-17T06:17:31.569Z,7.23
2023-02-17T06:18:31.583Z,7.22
2023-02-17T06:19:31.591Z,7.25
2023-02-17T06:20:31.604Z,7.26
2023-02-17T06:21:31.623Z,7.25
2023-02-17T06:22:31.630Z,7.23
2023-02-17T06:23:31.640Z,7.25
2023-02-17T06:24:31.651Z,7.19
2023-02-17T06:25:31.663Z,7.26
2023-02-17T06:26:31.678Z,7.28
2023-02-17T06:27:31.692Z,7.25
2023-02-17T06:28:32.734Z,7.21
2023-02-17T06:29:31.708Z,7.29
2023-02-17T06:30:31.837Z,7.31
2023-02-17T06:31:31.828Z,7.25
2023-02-17T06:32:31.744Z,7.29
2023-02-17T06:33:31.753Z,7.22
2023-02-17T06:34:31.772Z,7.26
2023-02-17T06:35:31.783Z,7.26
2023-02-17T06:36:31.790Z,7.26
2023-02-17T06:37:31.810Z,7.26
2023-02-17T06:38:31.817Z,7.25
2023-02-17T06:39:31.828Z,7.28
2023-02-17T06:40:31.836Z,7.21
2023-02-17T06:41:31.854Z,7.26
2023-02-17T06:42:31.858Z,7.25
2023-02-17T06:43:31.870Z,7.32
2023-02-17T06:44:31.887Z,7.25
2023-02-17T06:45:31.923Z,7.25
2023-02-17T06:46:31.906Z,7.39
2023-02-17T06:47:31.923Z,7.40
2023-02-17T06:48:31.933Z,7.36
2023-02-17T06:49:31.950Z,7.44
2023-02-17T06:50:31.986Z,7.29
2023-02-17T06:51:31.967Z,7.37
2023-02-17T06:52:31.983Z,7.43
2023-02-17T06:53:31.992Z,7.36
2023-02-17T06:54:32.014Z,7.36
2023-02-17T06:55:32.036Z,7.41
2023-02-17T06:56:32.040Z,7.41
2023-02-17T06:57:32.040Z,7.44
2023-02-17T06:58:32.071Z,7.46
2023-02-17T06:59:32.075Z,7.37
2023-02-17T07:00:32.101Z,7.55
2023-02-17T07:01:32.086Z,7.48
2023-02-17T07:02:32.176Z,7.53
2023-02-17T07:03:32.132Z,7.51
2023-02-17T07:04:32.129Z,7.50
2023-02-17T07:05:32.145Z,7.53
2023-02-17T07:06:32.155Z,7.55
2023-02-17T07:07:32.165Z,7.46
2023-02-17T07:08:34.008Z,7.67
2023-02-17T07:09:32.191Z,7.64
2023-02-17T07:10:32.207Z,7.61
2023-02-17T07:11:32.214Z,7.66
2023-02-17T07:12:32.228Z,7.62
2023-02-17T07:13:32.239Z,7.56
2023-02-17T07:14:32.256Z,7.64
2023-02-17T07:15:32.264Z,7.59
2023-02-17T07:16:32.344Z,7.74
2023-02-17T07:17:32.289Z,7.66
2023-02-17T07:18:32.302Z,7.78
2023-02-17T07:19:32.326Z,7.75
2023-02-17T07:20:32.329Z,7.80
2023-02-17T07:21:32.345Z,7.70
2023-02-17T07:22:32.356Z,7.67
2023-02-17T07:23:32.369Z,7.80
2023-02-17T07:24:32.378Z,7.81
2023-02-17T07:25:32.404Z,7.81
2023-02-17T07:26:32.404Z,7.83
2023-02-17T07:27:32.419Z,7.87
2023-02-17T07:28:32.429Z,7.83
2023-02-17T07:29:32.441Z,7.88
2023-02-17T07:30:32.567Z,7.91
2023-02-17T07:31:32.520Z,7.87
2023-02-17T07:32:32.482Z,7.99
2023-02-17T07:33:32.494Z,7.93
2023-02-17T07:34:32.508Z,7.95
2023-02-17T07:35:32.519Z,7.91
2023-02-17T07:36:32.547Z,7.99
2023-02-17T07:37:32.547Z,7.95
2023-02-17T07:38:33.473Z,8.02
2023-02-17T07:39:32.571Z,8.01
2023-02-17T07:40:32.583Z,7.99
2023-02-17T07:41:32.659Z,8.08
2023-02-17T07:42:32.605Z,8.08
2023-02-17T07:43:32.618Z,8.06
2023-02-17T07:44:32.630Z,8.11
2023-02-17T07:45:32.676Z,8.21
2023-02-17T07:46:32.658Z,8.23
2023-02-17T07:47:32.668Z,8.27
2023-02-17T07:48:32.683Z,8.26
2023-02-17T07:49:32.701Z,8.24
2023-02-17T07:50:32.710Z,8.24
2023-02-17T07:51:32.738Z,8.24
2023-02-17T07:52:32.738Z,8.24
2023-02-17T07:53:32.752Z,8.44
2023-02-17T07:54:32.760Z,8.28
2023-02-17T07:55:32.777Z,8.39
2023-02-17T07:56:32.785Z,8.38
2023-02-17T07:57:32.799Z,8.36
2023-02-17T07:58:32.816Z,8.39
2023-02-17T07:59:32.826Z,8.42
2023-02-17T08:00:32.846Z,8.54
2023-02-17T08:01:32.857Z,8.56
2023-02-17T08:02:32.865Z,8.54
2023-02-17T08:03:32.881Z,8.56
2023-02-17T08:04:32.982Z,8.57
2023-02-17T08:05:32.906Z,8.46
2023-02-17T08:06:32.919Z,8.52
2023-02-17T08:07:32.936Z,8.52
2023-02-17T08:08:32.946Z,8.54
2023-02-17T08:09:32.962Z,8.54
2023-02-17T08:10:32.970Z,8.60
2023-02-17T08:11:32.985Z,8.63
2023-02-17T08:12:32.999Z,8.60
2023-02-17T08:13:33.010Z,8.66
2023-02-17T08:14:33.037Z,8.64
2023-02-17T08:15:33.040Z,8.60
2023-02-17T08:16:33.085Z,8.64
2023-02-17T08:17:33.068Z,8.72
2023-02-17T08:18:36.442Z,8.68
2023-02-17T08:19:47.060Z,8.64
2023-02-17T08:20:34.975Z,8.64
2023-02-17T08:21:33.125Z,8.71
2023-02-17T08:22:33.134Z,8.69
2023-02-17T08:23:33.152Z,8.72
2023-02-17T08:24:33.162Z,8.72
2023-02-17T08:25:33.192Z,8.75
2023-02-17T08:26:33.191Z,8.78
2023-02-17T08:27:33.215Z,8.82
2023-02-17T08:28:33.215Z,8.74
2023-02-17T08:29:33.229Z,8.87
2023-02-17T08:30:33.337Z,8.77
2023-02-17T08:31:33.337Z,8.87
2023-02-17T08:32:33.272Z,8.86
2023-02-17T08:33:33.282Z,8.84
2023-02-17T08:34:33.298Z,8.75
2023-02-17T08:35:33.316Z,8.77
2023-02-17T08:36:33.341Z,8.78
2023-02-17T08:37:33.352Z,8.79
2023-02-17T08:38:33.373Z,8.82
2023-02-17T08:39:33.369Z,8.81
2023-02-17T08:40:33.387Z,8.86
2023-02-17T08:41:33.394Z,8.77
2023-02-17T08:42:33.442Z,8.75
2023-02-17T08:43:33.423Z,8.82
2023-02-17T08:44:33.441Z,8.97
2023-02-17T08:45:33.460Z,8.87
2023-02-17T08:46:33.499Z,8.87
2023-02-17T08:47:33.501Z,8.87
2023-02-17T08:48:35.317Z,8.92
2023-02-17T08:49:33.545Z,8.84
2023-02-17T08:50:33.632Z,8.92
2023-02-17T08:51:33.546Z,8.90
2023-02-17T08:52:33.541Z,8.78
2023-02-17T08:53:33.552Z,8.90
2023-02-17T08:54:33.651Z,8.84
2023-02-17T08:55:47.345Z,8.89
2023-02-17T08:56:33.601Z,8.84
2023-02-17T08:57:33.611Z,8.86
2023-02-17T08:58:33.622Z,8.84
2023-02-17T08:59:33.648Z,8.95
2023-02-17T09:00:33.697Z,8.87
2023-02-17T09:01:33.723Z,8.90
2023-02-17T09:02:33.672Z,8.84
2023-02-17T09:03:33.690Z,8.87
2023-02-17T09:04:33.740Z,8.87
2023-02-17T09:05:33.733Z,8.84
2023-02-17T09:06:33.754Z,8.89
2023-02-17T09:07:33.737Z,8.95
2023-02-17T09:08:33.805Z,8.90
2023-02-17T09:09:33.764Z,8.93
2023-02-17T09:10:33.778Z,8.90
2023-02-17T09:11:33.791Z,8.93
2023-02-17T09:12:33.803Z,8.95
2023-02-17T09:13:33.824Z,8.93
2023-02-17T09:14:33.849Z,8.92
2023-02-17T09:15:33.864Z,8.99
2023-02-17T09:16:33.874Z,8.96
2023-02-17T09:17:33.875Z,8.96
2023-02-17T09:18:33.890Z,8.90
2023-02-17T09:19:33.946Z,8.97
2023-02-17T09:20:33.921Z,8.95
2023-02-17T09:21:33.956Z,8.93
2023-02-17T09:22:33.969Z,8.97
2023-02-17T09:23:33.958Z,9.03
2023-02-17T09:24:33.964Z,8.96
2023-02-17T09:25:33.998Z,8.97
2023-02-17T09:26:34.024Z,8.95
2023-02-17T09:27:34.015Z,8.96
2023-02-17T09:28:34.098Z,8.97
2023-02-17T09:29:34.047Z,8.93
2023-02-17T09:30:34.115Z,9.03
2023-02-17T09:31:34.304Z,8.97
2023-02-17T09:32:34.118Z,9.05
2023-02-17T09:33:34.085Z,8.97
2023-02-17T09:34:34.098Z,9.03
2023-02-17T09:35:34.114Z,9.09
2023-02-17T09:36:34.158Z,9.08
2023-02-17T09:37:34.169Z,9.09
2023-02-17T09:38:34.160Z,9.15
2023-02-17T09:39:34.163Z,9.09
2023-02-17T09:40:34.179Z,9.11
2023-02-17T09:41:34.192Z,9.11
2023-02-17T09:42:34.205Z,9.11
2023-02-17T09:43:34.240Z,9.11
2023-02-17T09:44:34.332Z,9.13
2023-02-17T09:45:34.244Z,9.11
2023-02-17T09:46:34.275Z,9.09
2023-02-17T09:47:34.271Z,9.05
2023-02-17T09:48:34.328Z,9.08
2023-02-17T09:49:34.300Z,9.08
2023-02-17T09:50:34.341Z,9.15
2023-02-17T09:51:34.342Z,9.11
2023-02-17T09:52:34.339Z,9.13
2023-02-17T09:53:34.391Z,9.11
2023-02-17T09:54:34.364Z,9.15
2023-02-17T09:55:34.459Z,9.12
2023-02-17T09:56:34.388Z,9.15
2023-02-17T09:57:34.401Z,9.15
2023-02-17T09:58:34.433Z,9.12
2023-02-17T09:59:34.483Z,9.18
2023-02-17T10:00:34.445Z,9.11
2023-02-17T10:01:34.550Z,9.21
2023-02-17T10:02:34.505Z,9.16
2023-02-17T10:03:34.575Z,9.13
2023-02-17T10:04:34.574Z,9.15
2023-02-17T10:05:34.517Z,9.16
2023-02-17T10:06:34.577Z,9.13
2023-02-17T10:07:34.573Z,9.12
2023-02-17T10:08:34.546Z,9.13
2023-02-17T10:09:34.562Z,9.15
2023-02-17T10:10:34.591Z,9.18
2023-02-17T10:11:34.666Z,9.18
2023-02-17T10:12:34.602Z,9.19
2023-02-17T10:13:34.708Z,9.15
2023-02-17T10:14:34.625Z,9.16
2023-02-17T10:15:34.638Z,9.19
2023-02-17T10:16:34.738Z,9.16
2023-02-17T10:17:34.669Z,9.19
2023-02-17T10:18:34.680Z,9.18
2023-02-17T10:19:34.720Z,9.18
2023-02-17T10:20:34.705Z,9.19
2023-02-17T10:21:34.809Z,9.22
2023-02-17T10:22:34.738Z,9.26
2023-02-17T10:23:34.759Z,9.29
2023-02-17T10:24:34.771Z,9.30
2023-02-17T10:25:34.771Z,9.33
2023-02-17T10:26:34.851Z,9.33
2023-02-17T10:27:34.822Z,9.33
2023-02-17T10:28:34.813Z,9.36
2023-02-17T10:29:34.832Z,9.33
2023-02-17T10:30:34.922Z,9.36
2023-02-17T10:31:34.985Z,9.34
2023-02-17T10:32:34.950Z,9.31
2023-02-17T10:33:34.962Z,9.40
2023-02-17T10:34:35.025Z,9.29
2023-02-17T10:35:34.910Z,9.42
2023-02-17T10:36:34.929Z,9.34
2023-02-17T10:37:35.056Z,9.49
2023-02-17T10:38:34.956Z,9.47
2023-02-17T10:39:34.972Z,9.48
2023-02-17T10:40:34.976Z,9.49
2023-02-17T10:41:34.989Z,9.45
2023-02-17T10:42:35.011Z,9.58
2023-02-17T10:43:35.024Z,9.54
2023-02-17T10:44:35.039Z,9.58
2023-02-17T10:45:35.049Z,9.51
2023-02-17T10:46:35.084Z,9.54
2023-02-17T10:47:35.073Z,9.59
2023-02-17T10:48:35.092Z,9.63
2023-02-17T10:49:35.100Z,9.64
2023-02-17T10:50:35.117Z,9.59
2023-02-17T10:51:35.130Z,9.69
2023-02-17T10:52:35.143Z,9.66
2023-02-17T10:53:35.156Z,9.76
2023-02-17T10:54:35.183Z,9.69
2023-02-17T10:55:35.187Z,9.72
2023-02-17T10:56:35.199Z,9.73
2023-02-17T10:57:35.216Z,9.80
2023-02-17T10:58:35.226Z,9.77
2023-02-17T10:59:35.249Z,9.82
2023-02-17T11:00:35.259Z,9.82
2023-02-17T11:01:35.268Z,9.80
2023-02-17T11:02:35.301Z,9.74
2023-02-17T11:03:35.335Z,9.77
2023-02-17T11:04:35.312Z,9.80
2023-02-17T11:05:35.327Z,9.77
2023-02-17T11:06:35.342Z,9.85
2023-02-17T11:07:35.356Z,9.84
2023-02-17T11:08:35.368Z,9.87
2023-02-17T11:09:35.385Z,9.87
2023-02-17T11:10:35.397Z,9.88
2023-02-17T11:11:35.412Z,9.85
2023-02-17T11:12:35.428Z,9.85
2023-02-17T11:13:35.445Z,9.91
2023-02-17T11:14:35.466Z,9.88
2023-02-17T11:15:35.474Z,9.87
2023-02-17T11:16:35.507Z,9.85
2023-02-17T11:17:35.500Z,9.94
2023-02-17T11:18:35.518Z,9.94
2023-02-17T11:19:35.539Z,9.95
2023-02-17T11:20:35.544Z,10.02
2023-02-17T11:21:35.556Z,10.00
2023-02-17T11:22:35.572Z,10.02
2023-02-17T11:23:35.589Z,9.97
2023-02-17T11:24:35.614Z,10.02
2023-02-17T11:25:35.618Z,10.02
2023-02-17T11:26:35.634Z,10.02
2023-02-17T11:27:35.646Z,10.07
2023-02-17T11:28:35.660Z,9.97
2023-02-17T11:29:35.673Z,9.95
2023-02-17T11:30:35.710Z,10.03
2023-02-17T11:31:35.780Z,9.95
2023-02-17T11:32:35.730Z,9.99
2023-02-17T11:33:35.738Z,9.97
2023-02-17T11:34:35.749Z,9.97
2023-02-17T11:35:35.772Z,9.97
2023-02-17T11:36:35.781Z,10.00
2023-02-17T11:37:35.799Z,9.95
2023-02-17T11:38:35.813Z,10.02
2023-02-17T11:39:35.825Z,10.00
2023-02-17T11:40:35.857Z,10.07
2023-02-17T11:41:35.851Z,10.10
2023-02-17T11:42:35.866Z,10.07
2023-02-17T11:43:35.911Z,10.09
2023-02-17T11:44:35.897Z,10.10
2023-02-17T11:45:35.922Z,10.09
2023-02-17T11:46:35.924Z,10.07
2023-02-17T11:47:35.948Z,10.09
2023-02-17T11:48:35.964Z,10.15
2023-02-17T11:49:35.973Z,10.10
2023-02-17T11:50:41.760Z,10.09
2023-02-17T11:51:36.005Z,10.13
2023-02-17T11:52:36.020Z,10.17
2023-02-17T11:53:36.030Z,10.18
2023-02-17T11:54:36.041Z,10.13
2023-02-17T11:55:36.059Z,10.28
2023-02-17T11:56:36.072Z,10.24
2023-02-17T11:57:36.087Z,10.23
2023-02-17T11:58:36.115Z,10.21
2023-02-17T11:59:36.119Z,10.23
2023-02-17T12:00:36.128Z,10.24
2023-02-17T12:01:36.147Z,10.25
2023-02-17T12:02:36.160Z,10.21
2023-02-17T12:03:36.899Z,10.20
2023-02-17T12:04:36.203Z,10.27
2023-02-17T12:05:36.202Z,10.33
2023-02-17T12:06:36.216Z,10.27
2023-02-17T12:07:36.231Z,10.25
2023-02-17T12:08:36.245Z,10.24
2023-02-17T12:09:36.263Z,10.27
2023-02-17T12:10:36.275Z,10.31
2023-02-17T12:11:36.291Z,10.27
2023-02-17T12:12:36.306Z,10.31
2023-02-17T12:13:36.319Z,10.27
2023-02-17T12:14:36.335Z,10.30
2023-02-17T12:15:36.352Z,10.33
2023-02-17T12:16:36.418Z,10.33
2023-02-17T12:17:36.390Z,10.33
2023-02-17T12:18:36.392Z,10.28
2023-02-17T12:19:37.174Z,10.30
2023-02-17T12:20:36.428Z,10.31
2023-02-17T12:21:36.440Z,10.33
2023-02-17T12:22:36.457Z,10.34
2023-02-17T12:23:36.468Z,10.30
2023-02-17T12:24:36.481Z,10.38
2023-02-17T12:25:36.495Z,10.43
2023-02-17T12:26:36.514Z,10.48
2023-02-17T12:27:36.531Z,10.42
2023-02-17T12:28:36.542Z,10.48
2023-02-17T12:29:36.555Z,10.48
2023-02-17T12:30:36.665Z,10.42
2023-02-17T12:31:36.691Z,10.48
2023-02-17T12:32:36.604Z,10.49
2023-02-17T12:33:36.620Z,10.53
2023-02-17T12:34:36.644Z,10.55
2023-02-17T12:35:36.645Z,10.57
2023-02-17T12:36:36.667Z,10.55
2023-02-17T12:37:36.684Z,10.67
2023-02-17T12:38:36.698Z,10.71
2023-02-17T12:39:36.710Z,10.68
2023-02-17T12:40:36.726Z,10.67
2023-02-17T12:41:36.751Z,10.72
2023-02-17T12:42:36.756Z,10.68
2023-02-17T12:43:36.781Z,10.80
2023-02-17T12:44:36.785Z,10.67
2023-02-17T12:45:36.909Z,10.76
2023-02-17T12:46:36.816Z,10.84
2023-02-17T12:47:36.832Z,10.82
2023-02-17T12:48:36.850Z,10.95
2023-02-17T12:49:36.874Z,10.80
2023-02-17T12:50:36.880Z,11.04
2023-02-17T12:51:36.892Z,11.04
2023-02-17T12:52:36.916Z,10.98
2023-02-17T12:53:36.926Z,10.94
2023-02-17T12:54:36.944Z,10.95
2023-02-17T12:55:36.955Z,11.01
2023-02-17T12:56:36.974Z,11.05
2023-02-17T12:57:36.988Z,11.04
2023-02-17T12:58:37.005Z,11.04
2023-02-17T12:59:37.022Z,11.08
2023-02-17T13:00:37.034Z,11.15
2023-02-17T13:01:37.091Z,11.15
2023-02-17T13:02:37.087Z,11.15
2023-02-17T13:03:37.085Z,11.15
2023-02-17T13:04:37.106Z,11.16
2023-02-17T13:05:37.117Z,11.19
2023-02-17T13:06:37.137Z,11.16
2023-02-17T13:07:37.152Z,11.18
2023-02-17T13:08:37.163Z,11.15
2023-02-17T13:09:37.179Z,11.19
2023-02-17T13:10:37.196Z,11.16
2023-02-17T13:11:37.217Z,11.16
2023-02-17T13:12:37.229Z,11.13
2023-02-17T13:13:37.243Z,11.20
2023-02-17T13:14:37.259Z,11.18